sensor_id;sensor_type;location;lat;lon;timestamp;temperature;humidity
36186;DHT22;22228;53.222;7.446;2023-06-24T00:01:47;15.00;99.90
36186;DHT22;22228;53.222;7.446;2023-06-24T00:04:08;14.90;99.90
36186;DHT22;22228;53.222;7.446;2023-06-24T00:06:29;14.90;99.90
36186;DHT22;22228;53.222;7.446;2023-06-24T00:08:49;14.90;99.90
36186;DHT22;22228;53.222;7.446;2023-06-24T00:11:11;14.80;99.90
36186;DHT22;22228;53.222;7.446;2023-06-24T00:13:33;14.80;99.90
36186;DHT22;22228;53.222;7.446;2023-06-24T03:02:03;13.70;99.90
36186;DHT22;22228;53.222;7.446;2023-06-24T03:04:28;13.70;99.90
36186;DHT22;22228;53.222;7.446;2023-06-24T03:06:49;13.70;99.90
36186;DHT22;22228;53.222;7.446;2023-06-24T03:09:13;13.70;99.90
36186;DHT22;22228;53.222;7.446;2023-06-24T03:11:45;13.70;99.90
36186;DHT22;22228;53.222;7.446;2023-06-24T03:14:13;13.60;99.90
36186;DHT22;22228;53.222;7.446;2023-06-24T03:16:38;13.70;99.90
36186;DHT22;22228;53.222;7.446;2023-06-24T03:19:11;13.60;99.90
36186;DHT22;22228;53.222;7.446;2023-06-24T03:21:33;13.60;99.90
36186;DHT22;22228;53.222;7.446;2023-06-24T03:24:06;13.60;99.90
36186;DHT22;22228;53.222;7.446;2023-06-24T03:26:31;13.60;99.90
36186;DHT22;22228;53.222;7.446;2023-06-24T03:29:18;13.60;99.90
36186;DHT22;22228;53.222;7.446;2023-06-24T03:32:08;13.70;99.90
36186;DHT22;22228;53.222;7.446;2023-06-24T03:34:32;13.70;99.90
36186;DHT22;22228;53.222;7.446;2023-06-24T03:36:52;13.70;99.90
36186;DHT22;22228;53.222;7.446;2023-06-24T03:39:15;13.70;99.90
36186;DHT22;22228;53.222;7.446;2023-06-24T03:42:02;13.70;99.90
36186;DHT22;22228;53.222;7.446;2023-06-24T03:44:28;13.80;99.90
36186;DHT22;22228;53.222;7.446;2023-06-24T03:46:50;13.80;99.90
36186;DHT22;22228;53.222;7.446;2023-06-24T03:52:25;13.90;99.90
36186;DHT22;22228;53.222;7.446;2023-06-24T03:54:49;13.90;99.90
36186;DHT22;22228;53.222;7.446;2023-06-24T03:57:10;13.90;99.90
36186;DHT22;22228;53.222;7.446;2023-06-24T03:59:32;13.90;99.90
36186;DHT22;22228;53.222;7.446;2023-06-24T04:01:52;13.90;99.90
36186;DHT22;22228;53.222;7.446;2023-06-24T04:04:13;13.90;99.90
36186;DHT22;22228;53.222;7.446;2023-06-24T04:07:00;13.90;99.90
36186;DHT22;22228;53.222;7.446;2023-06-24T04:09:47;14.00;99.90
36186;DHT22;22228;53.222;7.446;2023-06-24T04:12:34;14.10;99.90
36186;DHT22;22228;53.222;7.446;2023-06-24T04:14:54;14.20;99.90
36186;DHT22;22228;53.222;7.446;2023-06-24T04:17:21;14.20;99.90
36186;DHT22;22228;53.222;7.446;2023-06-24T04:19:46;14.30;99.90
36186;DHT22;22228;53.222;7.446;2023-06-24T04:22:13;14.30;99.90
36186;DHT22;22228;53.222;7.446;2023-06-24T04:24:34;14.40;99.90
36186;DHT22;22228;53.222;7.446;2023-06-24T04:26:56;14.40;99.90
36186;DHT22;22228;53.222;7.446;2023-06-24T04:29:17;14.40;99.90
36186;DHT22;22228;53.222;7.446;2023-06-24T04:31:45;14.40;99.90
36186;DHT22;22228;53.222;7.446;2023-06-24T04:34:05;14.50;99.90
36186;DHT22;22228;53.222;7.446;2023-06-24T04:36:32;14.50;99.90
36186;DHT22;22228;53.222;7.446;2023-06-24T04:39:18;14.50;99.90
36186;DHT22;22228;53.222;7.446;2023-06-24T04:41:39;14.60;99.90
36186;DHT22;22228;53.222;7.446;2023-06-24T04:44:02;14.70;99.90
36186;DHT22;22228;53.222;7.446;2023-06-24T04:46:23;14.70;99.90
36186;DHT22;22228;53.222;7.446;2023-06-24T04:48:52;14.80;99.90
36186;DHT22;22228;53.222;7.446;2023-06-24T04:51:15;14.80;99.90
36186;DHT22;22228;53.222;7.446;2023-06-24T04:53:38;14.80;99.90
36186;DHT22;22228;53.222;7.446;2023-06-24T04:55:59;14.90;99.90
36186;DHT22;22228;53.222;7.446;2023-06-24T04:58:22;14.90;99.90
36186;DHT22;22228;53.222;7.446;2023-06-24T05:01:10;14.90;99.90
36186;DHT22;22228;53.222;7.446;2023-06-24T05:03:31;15.00;99.90
36186;DHT22;22228;53.222;7.446;2023-06-24T05:06:21;15.00;99.90
36186;DHT22;22228;53.222;7.446;2023-06-24T05:08:45;15.00;99.90
36186;DHT22;22228;53.222;7.446;2023-06-24T05:11:05;15.00;99.90
36186;DHT22;22228;53.222;7.446;2023-06-24T05:13:32;15.10;99.90
36186;DHT22;22228;53.222;7.446;2023-06-24T05:15:55;15.10;99.90
36186;DHT22;22228;53.222;7.446;2023-06-24T05:18:17;15.20;99.90
36186;DHT22;22228;53.222;7.446;2023-06-24T05:20:43;15.20;99.90
36186;DHT22;22228;53.222;7.446;2023-06-24T05:23:03;15.30;99.90
36186;DHT22;22228;53.222;7.446;2023-06-24T05:25:24;15.30;99.90
36186;DHT22;22228;53.222;7.446;2023-06-24T05:27:46;15.40;99.90
36186;DHT22;22228;53.222;7.446;2023-06-24T05:30:07;15.50;99.90
36186;DHT22;22228;53.222;7.446;2023-06-24T05:32:54;15.50;99.90
36186;DHT22;22228;53.222;7.446;2023-06-24T05:35:16;15.70;99.90
36186;DHT22;22228;53.222;7.446;2023-06-24T05:37:44;15.70;99.90
36186;DHT22;22228;53.222;7.446;2023-06-24T05:40:05;15.80;99.90
36186;DHT22;22228;53.222;7.446;2023-06-24T05:42:27;16.00;99.90
36186;DHT22;22228;53.222;7.446;2023-06-24T05:45:18;16.00;99.90
36186;DHT22;22228;53.222;7.446;2023-06-24T05:47:40;16.20;99.90
36186;DHT22;22228;53.222;7.446;2023-06-24T05:50:00;16.40;99.90
36186;DHT22;22228;53.222;7.446;2023-06-24T05:52:48;16.50;99.90
36186;DHT22;22228;53.222;7.446;2023-06-24T05:55:41;16.80;99.90
36186;DHT22;22228;53.222;7.446;2023-06-24T05:58:02;16.90;99.90
36186;DHT22;22228;53.222;7.446;2023-06-24T06:00:22;17.10;99.90
36186;DHT22;22228;53.222;7.446;2023-06-24T06:03:13;17.30;99.90
36186;DHT22;22228;53.222;7.446;2023-06-24T06:05:35;17.40;99.90
36186;DHT22;22228;53.222;7.446;2023-06-24T06:07:57;17.60;99.90
36186;DHT22;22228;53.222;7.446;2023-06-24T06:10:17;17.80;99.90
36186;DHT22;22228;53.222;7.446;2023-06-24T06:13:09;17.90;99.90
36186;DHT22;22228;53.222;7.446;2023-06-24T06:15:36;18.10;99.90
36186;DHT22;22228;53.222;7.446;2023-06-24T06:18:02;18.20;99.90
36186;DHT22;22228;53.222;7.446;2023-06-24T06:20:23;18.40;99.90
36186;DHT22;22228;53.222;7.446;2023-06-24T06:23:15;18.50;99.90
36186;DHT22;22228;53.222;7.446;2023-06-24T06:25:36;18.60;99.90
36186;DHT22;22228;53.222;7.446;2023-06-24T06:28:24;18.80;99.90
36186;DHT22;22228;53.222;7.446;2023-06-24T06:30:48;18.90;99.90
36186;DHT22;22228;53.222;7.446;2023-06-24T06:33:11;19.10;99.90
36186;DHT22;22228;53.222;7.446;2023-06-24T06:35:31;19.20;99.90
36186;DHT22;22228;53.222;7.446;2023-06-24T06:38:24;19.40;99.90
36186;DHT22;22228;53.222;7.446;2023-06-24T06:40:44;19.50;99.90
36186;DHT22;22228;53.222;7.446;2023-06-24T06:43:23;19.60;95.70
36186;DHT22;22228;53.222;7.446;2023-06-24T06:45:44;19.70;69.40
36186;DHT22;22228;53.222;7.446;2023-06-24T06:48:05;19.80;20.00
36186;DHT22;22228;53.222;7.446;2023-06-24T06:50:52;19.90;1.00
36186;DHT22;22228;53.222;7.446;2023-06-24T06:53:13;20.10;1.00
36186;DHT22;22228;53.222;7.446;2023-06-24T06:55:36;20.20;1.00
36186;DHT22;22228;53.222;7.446;2023-06-24T06:57:58;20.30;1.00
36186;DHT22;22228;53.222;7.446;2023-06-24T07:00:21;20.40;1.00
36186;DHT22;22228;53.222;7.446;2023-06-24T07:02:41;20.40;1.00
36186;DHT22;22228;53.222;7.446;2023-06-24T07:05:08;20.60;1.00
36186;DHT22;22228;53.222;7.446;2023-06-24T07:07:36;20.70;99.90
36186;DHT22;22228;53.222;7.446;2023-06-24T07:09:56;20.80;1.00
36186;DHT22;22228;53.222;7.446;2023-06-24T07:12:20;20.90;1.00
36186;DHT22;22228;53.222;7.446;2023-06-24T07:14:43;21.00;99.90
36186;DHT22;22228;53.222;7.446;2023-06-24T07:17:05;21.10;1.00
36186;DHT22;22228;53.222;7.446;2023-06-24T07:19:25;21.30;1.00
36186;DHT22;22228;53.222;7.446;2023-06-24T07:21:48;21.40;99.90
36186;DHT22;22228;53.222;7.446;2023-06-24T07:24:12;21.50;1.00
36186;DHT22;22228;53.222;7.446;2023-06-24T07:26:32;21.60;99.90
36186;DHT22;22228;53.222;7.446;2023-06-24T07:29:20;21.60;1.00
36186;DHT22;22228;53.222;7.446;2023-06-24T07:31:41;21.70;99.90
36186;DHT22;22228;53.222;7.446;2023-06-24T07:34:04;21.80;1.00
36186;DHT22;22228;53.222;7.446;2023-06-24T07:36:24;21.90;1.00
36186;DHT22;22228;53.222;7.446;2023-06-24T07:38:52;21.90;99.90
36186;DHT22;22228;53.222;7.446;2023-06-24T07:41:14;22.00;1.00
36186;DHT22;22228;53.222;7.446;2023-06-24T07:43:36;22.10;1.00
36186;DHT22;22228;53.222;7.446;2023-06-24T07:46:01;22.10;99.90
36186;DHT22;22228;53.222;7.446;2023-06-24T07:48:47;22.10;99.90
36186;DHT22;22228;53.222;7.446;2023-06-24T07:51:08;22.20;1.00
36186;DHT22;22228;53.222;7.446;2023-06-24T07:53:31;22.40;1.00
36186;DHT22;22228;53.222;7.446;2023-06-24T07:55:53;22.60;11.90
36186;DHT22;22228;53.222;7.446;2023-06-24T07:58:14;22.60;99.90
36186;DHT22;22228;53.222;7.446;2023-06-24T08:00:36;22.70;99.90
36186;DHT22;22228;53.222;7.446;2023-06-24T08:02:58;22.80;99.90
36186;DHT22;22228;53.222;7.446;2023-06-24T08:05:23;23.00;1.00
36186;DHT22;22228;53.222;7.446;2023-06-24T08:07:50;23.10;99.90
36186;DHT22;22228;53.222;7.446;2023-06-24T08:10:13;23.30;99.90
36186;DHT22;22228;53.222;7.446;2023-06-24T08:12:34;23.30;1.00
36186;DHT22;22228;53.222;7.446;2023-06-24T08:14:54;23.40;1.00
36186;DHT22;22228;53.222;7.446;2023-06-24T08:17:15;23.50;1.00
36186;DHT22;22228;53.222;7.446;2023-06-24T08:19:37;23.50;99.90
36186;DHT22;22228;53.222;7.446;2023-06-24T08:21:57;23.50;1.00
36186;DHT22;22228;53.222;7.446;2023-06-24T08:24:19;23.60;1.00
36186;DHT22;22228;53.222;7.446;2023-06-24T08:26:39;23.70;1.00
36186;DHT22;22228;53.222;7.446;2023-06-24T08:29:03;23.80;1.00
36186;DHT22;22228;53.222;7.446;2023-06-24T08:31:29;24.00;99.90
36186;DHT22;22228;53.222;7.446;2023-06-24T08:33:52;24.10;1.00
36186;DHT22;22228;53.222;7.446;2023-06-24T08:36:21;24.30;99.90
36186;DHT22;22228;53.222;7.446;2023-06-24T08:38:41;24.40;70.00
36186;DHT22;22228;53.222;7.446;2023-06-24T08:41:02;24.40;1.00
36186;DHT22;22228;53.222;7.446;2023-06-24T08:43:48;24.40;99.90
36186;DHT22;22228;53.222;7.446;2023-06-24T08:46:08;24.70;99.90
36186;DHT22;22228;53.222;7.446;2023-06-24T08:48:30;25.00;22.80
36186;DHT22;22228;53.222;7.446;2023-06-24T08:50:52;25.30;1.00
36186;DHT22;22228;53.222;7.446;2023-06-24T08:53:18;25.50;1.00
36186;DHT22;22228;53.222;7.446;2023-06-24T08:55:43;25.60;99.90
36186;DHT22;22228;53.222;7.446;2023-06-24T08:58:05;25.60;99.90
36186;DHT22;22228;53.222;7.446;2023-06-24T09:00:26;25.70;99.90
36186;DHT22;22228;53.222;7.446;2023-06-24T09:02:48;25.90;99.90
36186;DHT22;22228;53.222;7.446;2023-06-24T09:05:09;26.10;99.90
36186;DHT22;22228;53.222;7.446;2023-06-24T09:07:29;26.20;99.90
36186;DHT22;22228;53.222;7.446;2023-06-24T09:09:51;26.50;44.30
36186;DHT22;22228;53.222;7.446;2023-06-24T09:12:14;26.80;7.20
36186;DHT22;22228;53.222;7.446;2023-06-24T09:14:35;26.90;1.00
36186;DHT22;22228;53.222;7.446;2023-06-24T09:17:22;26.70;1.00
36186;DHT22;22228;53.222;7.446;2023-06-24T09:19:46;26.60;1.00
36186;DHT22;22228;53.222;7.446;2023-06-24T09:22:12;26.40;1.00
36186;DHT22;22228;53.222;7.446;2023-06-24T09:25:01;26.30;1.00
36186;DHT22;22228;53.222;7.446;2023-06-24T09:27:49;26.20;1.00
36186;DHT22;22228;53.222;7.446;2023-06-24T09:30:17;26.40;1.00
36186;DHT22;22228;53.222;7.446;2023-06-24T09:32:43;26.50;1.00
36186;DHT22;22228;53.222;7.446;2023-06-24T09:35:10;26.50;1.00
36186;DHT22;22228;53.222;7.446;2023-06-24T09:37:38;26.50;1.00
36186;DHT22;22228;53.222;7.446;2023-06-24T09:40:25;26.60;1.00
36186;DHT22;22228;53.222;7.446;2023-06-24T09:42:54;26.60;1.00
36186;DHT22;22228;53.222;7.446;2023-06-24T09:45:19;26.90;1.00
36186;DHT22;22228;53.222;7.446;2023-06-24T09:47:46;26.90;1.00
36186;DHT22;22228;53.222;7.446;2023-06-24T09:50:08;27.10;1.00
36186;DHT22;22228;53.222;7.446;2023-06-24T09:52:31;27.30;1.00
36186;DHT22;22228;53.222;7.446;2023-06-24T09:55:20;27.10;1.00
36186;DHT22;22228;53.222;7.446;2023-06-24T09:57:44;27.00;1.00
36186;DHT22;22228;53.222;7.446;2023-06-24T10:00:07;27.10;1.00
36186;DHT22;22228;53.222;7.446;2023-06-24T10:02:36;27.10;1.00
36186;DHT22;22228;53.222;7.446;2023-06-24T10:04:59;27.00;1.00
36186;DHT22;22228;53.222;7.446;2023-06-24T10:07:45;26.90;1.00
36186;DHT22;22228;53.222;7.446;2023-06-24T10:13:26;26.70;1.00
36186;DHT22;22228;53.222;7.446;2023-06-24T10:15:47;26.70;1.00
36186;DHT22;22228;53.222;7.446;2023-06-24T10:18:34;26.90;1.00
36186;DHT22;22228;53.222;7.446;2023-06-24T10:20:56;27.10;1.00
36186;DHT22;22228;53.222;7.446;2023-06-24T10:23:16;27.30;1.00
36186;DHT22;22228;53.222;7.446;2023-06-24T10:25:39;27.40;1.00
36186;DHT22;22228;53.222;7.446;2023-06-24T10:28:01;27.50;99.90
36186;DHT22;22228;53.222;7.446;2023-06-24T10:30:25;27.00;99.90
36186;DHT22;22228;53.222;7.446;2023-06-24T10:32:51;26.80;99.90
36186;DHT22;22228;53.222;7.446;2023-06-24T10:35:23;26.60;99.90
36186;DHT22;22228;53.222;7.446;2023-06-24T10:37:54;26.70;99.90
36186;DHT22;22228;53.222;7.446;2023-06-24T10:40:34;27.00;99.90
36186;DHT22;22228;53.222;7.446;2023-06-24T10:42:55;27.10;99.90
36186;DHT22;22228;53.222;7.446;2023-06-24T10:45:18;27.00;99.90
36186;DHT22;22228;53.222;7.446;2023-06-24T10:48:09;26.90;99.90
36186;DHT22;22228;53.222;7.446;2023-06-24T10:50:30;27.10;99.90
36186;DHT22;22228;53.222;7.446;2023-06-24T10:52:52;27.30;99.90
36186;DHT22;22228;53.222;7.446;2023-06-24T10:55:50;27.30;99.90
36186;DHT22;22228;53.222;7.446;2023-06-24T10:58:14;27.60;99.90
36186;DHT22;22228;53.222;7.446;2023-06-24T11:01:06;28.10;99.90
36186;DHT22;22228;53.222;7.446;2023-06-24T11:03:34;28.50;99.90
36186;DHT22;22228;53.222;7.446;2023-06-24T11:05:58;29.00;99.90
36186;DHT22;22228;53.222;7.446;2023-06-24T11:08:20;29.90;99.90
36186;DHT22;22228;53.222;7.446;2023-06-24T11:11:18;30.10;99.90
36186;DHT22;22228;53.222;7.446;2023-06-24T11:14:04;30.10;99.90
36186;DHT22;22228;53.222;7.446;2023-06-24T11:16:31;29.80;99.90
36186;DHT22;22228;53.222;7.446;2023-06-24T11:19:18;29.60;99.90
36186;DHT22;22228;53.222;7.446;2023-06-24T11:22:04;29.40;99.90
36186;DHT22;22228;53.222;7.446;2023-06-24T11:24:49;29.40;1.00
36186;DHT22;22228;53.222;7.446;2023-06-24T11:27:35;29.30;99.90
36186;DHT22;22228;53.222;7.446;2023-06-24T11:29:57;29.70;44.20
36186;DHT22;22228;53.222;7.446;2023-06-24T11:32:47;29.30;99.90
36186;DHT22;22228;53.222;7.446;2023-06-24T11:35:14;28.80;99.90
36186;DHT22;22228;53.222;7.446;2023-06-24T11:37:41;28.90;99.90
36186;DHT22;22228;53.222;7.446;2023-06-24T11:40:06;28.90;99.90
36186;DHT22;22228;53.222;7.446;2023-06-24T11:42:28;28.70;85.80
36186;DHT22;22228;53.222;7.446;2023-06-24T11:44:49;28.10;99.90
36186;DHT22;22228;53.222;7.446;2023-06-24T11:47:13;27.90;99.90
36186;DHT22;22228;53.222;7.446;2023-06-24T11:49:47;28.10;99.90
36186;DHT22;22228;53.222;7.446;2023-06-24T11:52:09;29.00;99.90
36186;DHT22;22228;53.222;7.446;2023-06-24T11:54:40;29.40;99.90
36186;DHT22;22228;53.222;7.446;2023-06-24T11:57:05;29.20;54.50
36186;DHT22;22228;53.222;7.446;2023-06-24T11:59:51;29.30;99.90
36186;DHT22;22228;53.222;7.446;2023-06-24T12:02:40;29.50;99.90
36186;DHT22;22228;53.222;7.446;2023-06-24T12:05:02;29.20;99.90
36186;DHT22;22228;53.222;7.446;2023-06-24T12:07:25;28.80;99.90
36186;DHT22;22228;53.222;7.446;2023-06-24T12:09:48;29.30;99.90
36186;DHT22;22228;53.222;7.446;2023-06-24T12:12:10;30.30;1.00
36186;DHT22;22228;53.222;7.446;2023-06-24T12:14:31;29.70;99.90
36186;DHT22;22228;53.222;7.446;2023-06-24T12:17:24;29.80;1.00
36186;DHT22;22228;53.222;7.446;2023-06-24T12:19:45;29.70;99.90
36186;DHT22;22228;53.222;7.446;2023-06-24T12:22:31;29.30;99.90
36186;DHT22;22228;53.222;7.446;2023-06-24T12:24:54;28.50;99.90
36186;DHT22;22228;53.222;7.446;2023-06-24T12:27:15;28.10;99.90
36186;DHT22;22228;53.222;7.446;2023-06-24T12:29:37;28.00;99.90
36186;DHT22;22228;53.222;7.446;2023-06-24T12:31:58;28.00;99.90
36186;DHT22;22228;53.222;7.446;2023-06-24T12:34:24;28.30;99.90
36186;DHT22;22228;53.222;7.446;2023-06-24T12:36:50;29.00;99.90
36186;DHT22;22228;53.222;7.446;2023-06-24T12:39:36;30.20;99.90
36186;DHT22;22228;53.222;7.446;2023-06-24T12:41:57;31.30;1.00
36186;DHT22;22228;53.222;7.446;2023-06-24T12:44:18;30.60;1.00
36186;DHT22;22228;53.222;7.446;2023-06-24T12:46:39;31.20;1.00
36186;DHT22;22228;53.222;7.446;2023-06-24T12:49:00;32.00;1.00
36186;DHT22;22228;53.222;7.446;2023-06-24T12:51:27;32.00;1.00
36186;DHT22;22228;53.222;7.446;2023-06-24T12:53:47;31.60;1.00
36186;DHT22;22228;53.222;7.446;2023-06-24T12:59:21;30.80;1.00
36186;DHT22;22228;53.222;7.446;2023-06-24T13:01:48;29.90;99.90
36186;DHT22;22228;53.222;7.446;2023-06-24T13:04:34;29.80;1.00
36186;DHT22;22228;53.222;7.446;2023-06-24T13:06:54;30.60;99.90
36186;DHT22;22228;53.222;7.446;2023-06-24T13:09:22;31.80;99.90
36186;DHT22;22228;53.222;7.446;2023-06-24T13:11:43;30.50;99.90
36186;DHT22;22228;53.222;7.446;2023-06-24T13:14:29;30.70;97.90
36186;DHT22;22228;53.222;7.446;2023-06-24T13:17:14;30.60;99.90
36186;DHT22;22228;53.222;7.446;2023-06-24T13:19:37;31.30;99.90
36186;DHT22;22228;53.222;7.446;2023-06-24T13:21:58;32.10;99.90
36186;DHT22;22228;53.222;7.446;2023-06-24T13:24:43;33.20;99.90
36186;DHT22;22228;53.222;7.446;2023-06-24T13:27:07;32.80;1.00
36186;DHT22;22228;53.222;7.446;2023-06-24T13:29:29;32.00;99.90
36186;DHT22;22228;53.222;7.446;2023-06-24T13:31:51;31.40;99.90
36186;DHT22;22228;53.222;7.446;2023-06-24T13:34:13;32.20;1.00
36186;DHT22;22228;53.222;7.446;2023-06-24T13:36:35;32.10;99.90
36186;DHT22;22228;53.222;7.446;2023-06-24T13:39:21;31.60;99.90
36186;DHT22;22228;53.222;7.446;2023-06-24T13:41:44;31.40;1.00
36186;DHT22;22228;53.222;7.446;2023-06-24T13:44:05;31.00;1.00
36186;DHT22;22228;53.222;7.446;2023-06-24T13:46:29;30.60;99.90
36186;DHT22;22228;53.222;7.446;2023-06-24T13:48:50;30.30;99.90
36186;DHT22;22228;53.222;7.446;2023-06-24T13:51:12;30.10;99.90
36186;DHT22;22228;53.222;7.446;2023-06-24T13:53:33;29.90;99.90
36186;DHT22;22228;53.222;7.446;2023-06-24T13:56:00;29.50;99.90
36186;DHT22;22228;53.222;7.446;2023-06-24T13:58:27;29.40;99.90
36186;DHT22;22228;53.222;7.446;2023-06-24T14:00:50;29.60;91.20
36186;DHT22;22228;53.222;7.446;2023-06-24T14:03:40;29.60;57.00
36186;DHT22;22228;53.222;7.446;2023-06-24T14:06:03;29.50;1.00
36186;DHT22;22228;53.222;7.446;2023-06-24T14:08:27;29.60;99.90
36186;DHT22;22228;53.222;7.446;2023-06-24T14:10:48;30.90;1.00
36186;DHT22;22228;53.222;7.446;2023-06-24T14:13:09;32.10;99.90
36186;DHT22;22228;53.222;7.446;2023-06-24T14:15:30;32.50;32.40
36186;DHT22;22228;53.222;7.446;2023-06-24T14:17:51;32.40;99.90
36186;DHT22;22228;53.222;7.446;2023-06-24T14:20:16;31.70;99.90
36186;DHT22;22228;53.222;7.446;2023-06-24T14:22:37;30.80;1.00
36186;DHT22;22228;53.222;7.446;2023-06-24T14:24:58;30.10;99.90
36186;DHT22;22228;53.222;7.446;2023-06-24T14:27:18;29.70;99.90
36186;DHT22;22228;53.222;7.446;2023-06-24T14:29:39;29.10;11.90
36186;DHT22;22228;53.222;7.446;2023-06-24T14:32:00;28.70;1.00
36186;DHT22;22228;53.222;7.446;2023-06-24T14:34:28;28.50;99.90
36186;DHT22;22228;53.222;7.446;2023-06-24T14:36:50;28.30;1.00
36186;DHT22;22228;53.222;7.446;2023-06-24T14:39:36;28.00;1.00
36186;DHT22;22228;53.222;7.446;2023-06-24T14:42:23;27.80;99.90
36186;DHT22;22228;53.222;7.446;2023-06-24T14:44:45;27.50;99.90
36186;DHT22;22228;53.222;7.446;2023-06-24T14:47:37;27.40;99.90
36186;DHT22;22228;53.222;7.446;2023-06-24T14:50:04;27.20;99.90
36186;DHT22;22228;53.222;7.446;2023-06-24T14:52:32;27.10;99.90
36186;DHT22;22228;53.222;7.446;2023-06-24T14:55:18;27.10;1.00
36186;DHT22;22228;53.222;7.446;2023-06-24T14:57:39;27.00;99.90
36186;DHT22;22228;53.222;7.446;2023-06-24T14:59:59;27.00;99.90
36186;DHT22;22228;53.222;7.446;2023-06-24T15:02:46;26.80;99.90
36186;DHT22;22228;53.222;7.446;2023-06-24T15:05:13;26.70;99.90
36186;DHT22;22228;53.222;7.446;2023-06-24T15:07:35;26.50;1.00
36186;DHT22;22228;53.222;7.446;2023-06-24T15:10:22;26.50;1.00
36186;DHT22;22228;53.222;7.446;2023-06-24T15:12:43;26.50;99.90
36186;DHT22;22228;53.222;7.446;2023-06-24T15:15:05;26.50;99.90
36186;DHT22;22228;53.222;7.446;2023-06-24T15:17:25;26.50;1.00
36186;DHT22;22228;53.222;7.446;2023-06-24T15:19:48;26.50;1.00
36186;DHT22;22228;53.222;7.446;2023-06-24T15:22:10;26.40;1.00
36186;DHT22;22228;53.222;7.446;2023-06-24T15:24:32;26.40;1.00
36186;DHT22;22228;53.222;7.446;2023-06-24T15:26:53;26.40;1.00
36186;DHT22;22228;53.222;7.446;2023-06-24T15:29:18;26.40;1.00
36186;DHT22;22228;53.222;7.446;2023-06-24T15:31:42;26.50;1.00
36186;DHT22;22228;53.222;7.446;2023-06-24T15:34:07;26.50;99.90
36186;DHT22;22228;53.222;7.446;2023-06-24T15:36:35;26.70;1.00
36186;DHT22;22228;53.222;7.446;2023-06-24T15:38:56;26.90;99.90
36186;DHT22;22228;53.222;7.446;2023-06-24T15:41:19;27.00;1.00
36186;DHT22;22228;53.222;7.446;2023-06-24T15:46:58;27.40;1.00
36186;DHT22;22228;53.222;7.446;2023-06-24T15:49:18;27.60;1.00
36186;DHT22;22228;53.222;7.446;2023-06-24T15:52:04;27.40;1.00
36186;DHT22;22228;53.222;7.446;2023-06-24T15:54:25;27.40;1.00
36186;DHT22;22228;53.222;7.446;2023-06-24T15:57:13;27.40;1.00
36186;DHT22;22228;53.222;7.446;2023-06-24T15:59:35;27.50;1.00
36186;DHT22;22228;53.222;7.446;2023-06-24T16:02:02;27.20;1.00
36186;DHT22;22228;53.222;7.446;2023-06-24T16:04:22;27.10;1.00
36186;DHT22;22228;53.222;7.446;2023-06-24T16:06:43;27.10;1.00
36186;DHT22;22228;53.222;7.446;2023-06-24T16:09:06;26.80;1.00
36186;DHT22;22228;53.222;7.446;2023-06-24T16:11:53;26.60;1.00
36186;DHT22;22228;53.222;7.446;2023-06-24T16:14:15;26.70;1.00
36186;DHT22;22228;53.222;7.446;2023-06-24T16:16:35;26.80;1.00
36186;DHT22;22228;53.222;7.446;2023-06-24T16:18:58;26.90;1.00
36186;DHT22;22228;53.222;7.446;2023-06-24T16:21:20;27.00;1.00
36186;DHT22;22228;53.222;7.446;2023-06-24T16:23:42;27.00;1.00
36186;DHT22;22228;53.222;7.446;2023-06-24T16:26:03;27.10;1.00
36186;DHT22;22228;53.222;7.446;2023-06-24T16:28:24;27.30;1.00
36186;DHT22;22228;53.222;7.446;2023-06-24T16:30:54;27.80;1.00
36186;DHT22;22228;53.222;7.446;2023-06-24T16:33:15;28.60;99.90
36186;DHT22;22228;53.222;7.446;2023-06-24T16:35:43;29.00;99.90
36186;DHT22;22228;53.222;7.446;2023-06-24T16:38:05;29.20;99.90
36186;DHT22;22228;53.222;7.446;2023-06-24T16:40:29;29.40;99.90
36186;DHT22;22228;53.222;7.446;2023-06-24T16:42:50;29.10;99.90
36186;DHT22;22228;53.222;7.446;2023-06-24T16:45:13;28.90;99.90
36186;DHT22;22228;53.222;7.446;2023-06-24T16:47:41;28.60;99.90
36186;DHT22;22228;53.222;7.446;2023-06-24T16:50:02;28.00;99.90
36186;DHT22;22228;53.222;7.446;2023-06-24T16:52:56;27.40;99.90
36186;DHT22;22228;53.222;7.446;2023-06-24T16:55:21;26.90;99.90
36186;DHT22;22228;53.222;7.446;2023-06-24T16:57:42;26.70;99.90
36186;DHT22;22228;53.222;7.446;2023-06-24T17:00:10;26.60;99.90
36186;DHT22;22228;53.222;7.446;2023-06-24T17:03:01;26.60;99.90
36186;DHT22;22228;53.222;7.446;2023-06-24T17:05:28;26.30;99.90
36186;DHT22;22228;53.222;7.446;2023-06-24T17:07:53;26.20;99.90
36186;DHT22;22228;53.222;7.446;2023-06-24T17:10:15;26.10;99.90
36186;DHT22;22228;53.222;7.446;2023-06-24T17:12:42;26.20;99.90
36186;DHT22;22228;53.222;7.446;2023-06-24T17:15:04;26.20;99.90
36186;DHT22;22228;53.222;7.446;2023-06-24T17:17:25;26.00;99.90
36186;DHT22;22228;53.222;7.446;2023-06-24T17:19:48;25.90;99.90
36186;DHT22;22228;53.222;7.446;2023-06-24T17:22:10;25.90;99.90
36186;DHT22;22228;53.222;7.446;2023-06-24T17:24:32;26.00;99.90
36186;DHT22;22228;53.222;7.446;2023-06-24T17:26:54;25.90;99.90
36186;DHT22;22228;53.222;7.446;2023-06-24T17:29:15;25.80;99.90
36186;DHT22;22228;53.222;7.446;2023-06-24T17:31:36;25.80;99.90
36186;DHT22;22228;53.222;7.446;2023-06-24T17:33:59;25.90;99.90
36186;DHT22;22228;53.222;7.446;2023-06-24T17:36:50;26.00;99.90
36186;DHT22;22228;53.222;7.446;2023-06-24T17:39:24;26.10;99.90
36186;DHT22;22228;53.222;7.446;2023-06-24T17:41:45;26.30;99.90
36186;DHT22;22228;53.222;7.446;2023-06-24T17:44:05;27.20;99.90
36186;DHT22;22228;53.222;7.446;2023-06-24T17:46:51;28.10;99.90
36186;DHT22;22228;53.222;7.446;2023-06-24T17:49:12;28.90;99.90
36186;DHT22;22228;53.222;7.446;2023-06-24T17:51:33;29.30;99.90
36186;DHT22;22228;53.222;7.446;2023-06-24T17:53:56;29.50;99.90
36186;DHT22;22228;53.222;7.446;2023-06-24T17:56:23;29.30;99.90
36186;DHT22;22228;53.222;7.446;2023-06-24T17:58:46;29.50;99.90
36186;DHT22;22228;53.222;7.446;2023-06-24T18:01:10;29.60;99.90
36186;DHT22;22228;53.222;7.446;2023-06-24T18:03:34;29.60;99.90
36186;DHT22;22228;53.222;7.446;2023-06-24T18:06:01;29.50;99.90
36186;DHT22;22228;53.222;7.446;2023-06-24T18:08:23;29.70;99.90
36186;DHT22;22228;53.222;7.446;2023-06-24T18:10:45;30.00;99.90
36186;DHT22;22228;53.222;7.446;2023-06-24T18:13:08;29.60;99.90
36186;DHT22;22228;53.222;7.446;2023-06-24T18:15:30;29.40;99.90
36186;DHT22;22228;53.222;7.446;2023-06-24T18:17:52;29.60;99.90
36186;DHT22;22228;53.222;7.446;2023-06-24T18:20:13;29.60;99.90
36186;DHT22;22228;53.222;7.446;2023-06-24T18:22:40;29.40;99.90
36186;DHT22;22228;53.222;7.446;2023-06-24T18:25:01;29.20;99.90
36186;DHT22;22228;53.222;7.446;2023-06-24T18:28:08;28.80;99.90
36186;DHT22;22228;53.222;7.446;2023-06-24T18:30:30;28.30;99.90
36186;DHT22;22228;53.222;7.446;2023-06-24T18:33:18;28.10;99.90
36186;DHT22;22228;53.222;7.446;2023-06-24T18:35:50;27.50;99.90